Time,TemperatureF,DewpointF,PressureIn,WindDirection,WindDirectionDegrees,WindSpeedMPH,WindSpeedGustMPH,Humidity,HourlyPrecipIn,Conditions,Clouds,dailyrainin,SoftwareType,DateUTC
2013-11-08 00:01:00,18.5,10.9,30.04,South,180,4.0,4.0,72,0.00,,,0.00,meteohub,2013-11-08 06:01:00,
2013-11-08 00:06:00,18.5,10.9,30.04,South,180,4.0,4.0,72,0.00,,,0.00,meteohub,2013-11-08 06:06:00,
2013-11-08 00:11:00,18.7,11.1,30.04,South,180,3.0,4.0,72,0.00,,,0.00,meteohub,2013-11-08 06:11:00,
2013-11-08 00:16:00,18.5,10.9,30.03,South,180,3.0,4.0,72,0.00,,,0.00,meteohub,2013-11-08 06:16:00,
2013-11-08 00:22:00,18.3,10.8,30.04,South,180,5.0,5.0,72,0.00,,,0.00,meteohub,2013-11-08 06:22:00,
2013-11-08 00:27:00,18.7,11.1,30.03,SE,135,4.0,5.0,72,0.00,,,0.00,meteohub,2013-11-08 06:27:00,
2013-11-08 00:32:00,18.7,11.1,30.03,South,180,4.0,5.0,72,0.00,,,0.00,meteohub,2013-11-08 06:32:00,
2013-11-08 00:37:00,18.7,11.1,30.03,SSE,158,5.0,5.0,72,0.00,,,0.00,meteohub,2013-11-08 06:37:00,
2013-11-08 00:42:00,18.7,11.1,30.03,South,180,5.0,5.0,72,0.00,,,0.00,meteohub,2013-11-08 06:42:00,
2013-11-08 00:47:00,19.0,11.5,30.03,South,180,4.0,6.0,72,0.00,,,0.00,meteohub,2013-11-08 06:47:00,
2013-11-08 00:52:00,18.9,11.3,30.03,South,180,5.0,6.0,72,0.00,,,0.00,meteohub,2013-11-08 06:52:00,
2013-11-08 00:57:00,18.9,11.3,30.03,South,180,4.0,6.0,72,0.00,,,0.00,meteohub,2013-11-08 06:57:00,
2013-11-08 01:02:00,18.9,11.3,30.03,South,180,4.0,6.0,72,0.00,,,0.00,meteohub,2013-11-08 07:02:00,
2013-11-08 01:07:00,18.7,11.1,30.03,South,180,4.0,6.0,72,0.00,,,0.00,meteohub,2013-11-08 07:07:00,
2013-11-08 01:12:00,18.7,11.1,30.03,SSE,158,4.0,5.0,72,0.00,,,0.00,meteohub,2013-11-08 07:12:00,
2013-11-08 01:17:00,18.7,11.1,30.03,South,180,5.0,5.0,72,0.00,,,0.00,meteohub,2013-11-08 07:17:00,
2013-11-08 01:22:00,18.7,11.1,30.03,South,180,3.0,5.0,72,0.00,,,0.00,meteohub,2013-11-08 07:22:00,
2013-11-08 01:28:00,18.7,11.1,30.03,South,180,4.0,5.0,72,0.00,,,0.00,meteohub,2013-11-08 07:28:00,
2013-11-08 01:33:00,18.5,10.9,30.02,SE,135,3.0,5.0,72,0.00,,,0.00,meteohub,2013-11-08 07:33:00,
2013-11-08 01:38:00,18.5,10.9,30.02,SE,135,4.0,4.0,72,0.00,,,0.00,meteohub,2013-11-08 07:38:00,
2013-11-08 01:43:00,18.5,10.9,30.02,SSE,158,4.0,4.0,72,0.00,,,0.00,meteohub,2013-11-08 07:43:00,
2013-11-08 01:48:00,18.9,11.7,30.02,South,180,5.0,5.0,73,0.00,,,0.00,meteohub,2013-11-08 07:48:00,
2013-11-08 01:53:00,19.2,12.0,30.01,SE,135,4.0,4.0,73,0.00,,,0.00,meteohub,2013-11-08 07:53:00,
2013-11-08 01:58:00,19.4,13.5,30.02,South,180,4.0,5.0,77,0.00,,,0.00,meteohub,2013-11-08 07:58:00,
2013-11-08 02:03:00,19.4,13.5,30.02,South,180,5.0,7.0,77,0.00,,,0.00,meteohub,2013-11-08 08:03:00,
2013-11-08 02:08:00,19.2,12.0,30.01,South,180,6.0,7.0,73,0.00,,,0.00,meteohub,2013-11-08 08:08:00,
2013-11-08 02:13:00,18.9,11.7,30.01,South,180,5.0,7.0,73,0.00,,,0.00,meteohub,2013-11-08 08:13:00,
2013-11-08 02:18:00,18.0,10.4,30.01,South,180,5.0,7.0,72,0.00,,,0.00,meteohub,2013-11-08 08:18:00,
2013-11-08 02:23:00,17.6,10.0,30.01,SSE,158,5.0,7.0,72,0.00,,,0.00,meteohub,2013-11-08 08:23:00,
2013-11-08 02:28:00,17.4,10.2,30.01,South,180,4.0,6.0,73,0.00,,,0.00,meteohub,2013-11-08 08:28:00,
2013-11-08 02:33:00,17.2,10.0,30.01,South,180,6.0,6.0,73,0.00,,,0.00,meteohub,2013-11-08 08:33:00,
2013-11-08 02:39:00,17.6,10.0,30.02,South,180,6.0,6.0,72,0.00,,,0.00,meteohub,2013-11-08 08:39:00,
2013-11-08 02:44:00,18.0,10.8,30.01,South,180,4.0,7.0,73,0.00,,,0.00,meteohub,2013-11-08 08:44:00,
2013-11-08 02:49:00,17.8,10.2,30.01,SSE,158,4.0,7.0,72,0.00,,,0.00,meteohub,2013-11-08 08:49:00,
2013-11-08 02:54:00,17.6,10.0,30.01,South,180,4.0,7.0,72,0.00,,,0.00,meteohub,2013-11-08 08:54:00,
2013-11-08 02:59:00,17.2,10.0,30.01,South,180,5.0,6.0,73,0.00,,,0.00,meteohub,2013-11-08 08:59:00,
2013-11-08 03:04:00,17.4,10.2,30.00,South,180,5.0,5.0,73,0.00,,,0.00,meteohub,2013-11-08 09:04:00,
2013-11-08 03:09:00,17.6,10.0,30.00,SE,135,4.0,5.0,72,0.00,,,0.00,meteohub,2013-11-08 09:09:00,
2013-11-08 03:14:00,17.4,10.2,30.00,SE,135,4.0,5.0,73,0.00,,,0.00,meteohub,2013-11-08 09:14:00,
2013-11-08 03:19:00,17.4,10.2,30.00,SE,135,5.0,5.0,73,0.00,,,0.00,meteohub,2013-11-08 09:19:00,
2013-11-08 03:24:00,17.6,10.4,30.00,SE,135,5.0,5.0,73,0.00,,,0.00,meteohub,2013-11-08 09:24:00,
2013-11-08 03:29:00,17.8,10.6,29.99,SSE,158,5.0,5.0,73,0.00,,,0.00,meteohub,2013-11-08 09:29:00,
2013-11-08 03:34:00,18.0,10.8,29.99,SE,135,4.0,5.0,73,0.00,,,0.00,meteohub,2013-11-08 09:34:00,
2013-11-08 03:39:00,18.1,10.9,29.99,SSE,158,5.0,5.0,73,0.00,,,0.00,meteohub,2013-11-08 09:39:00,
2013-11-08 03:44:00,18.3,11.1,29.99,SE,135,5.0,5.0,73,0.00,,,0.00,meteohub,2013-11-08 09:44:00,
2013-11-08 03:49:00,18.5,11.3,29.99,SE,135,4.0,6.0,73,0.00,,,0.00,meteohub,2013-11-08 09:49:00,
2013-11-08 03:54:00,18.3,11.1,29.98,SE,135,5.0,6.0,73,0.00,,,0.00,meteohub,2013-11-08 09:54:00,
2013-11-08 03:59:00,18.5,11.3,29.98,South,180,5.0,6.0,73,0.00,,,0.00,meteohub,2013-11-08 09:59:00,
2013-11-08 04:05:00,18.3,11.1,29.98,SE,135,4.0,6.0,73,0.00,,,0.00,meteohub,2013-11-08 10:05:00,
2013-11-08 04:10:00,18.0,10.8,29.98,SSE,158,4.0,6.0,73,0.00,,,0.00,meteohub,2013-11-08 10:10:00,
2013-11-08 04:15:00,18.1,10.9,29.98,SE,135,6.0,6.0,73,0.00,,,0.00,meteohub,2013-11-08 10:15:00,
2013-11-08 04:20:00,18.1,10.9,29.97,SSE,158,5.0,6.0,73,0.00,,,0.00,meteohub,2013-11-08 10:20:00,
2013-11-08 04:25:00,18.1,10.9,29.97,SE,135,6.0,6.0,73,0.00,,,0.00,meteohub,2013-11-08 10:25:00,
2013-11-08 04:30:00,18.5,11.3,29.97,SE,135,7.0,7.0,73,0.00,,,0.00,meteohub,2013-11-08 10:30:00,
2013-11-08 04:35:00,19.0,12.2,29.97,SE,135,6.0,8.0,74,0.00,,,0.00,meteohub,2013-11-08 10:35:00,
2013-11-08 04:40:00,19.2,12.4,29.96,South,180,4.0,8.0,74,0.00,,,0.00,meteohub,2013-11-08 10:40:00,
2013-11-08 04:45:00,19.0,12.2,29.96,South,180,8.0,8.0,74,0.00,,,0.00,meteohub,2013-11-08 10:45:00,
2013-11-08 04:50:00,19.2,12.4,29.96,SE,135,8.0,8.0,74,0.00,,,0.00,meteohub,2013-11-08 10:50:00,
2013-11-08 04:55:00,19.8,14.0,29.96,SE,135,7.0,8.0,78,0.00,,,0.00,meteohub,2013-11-08 10:55:00,
2013-11-08 05:00:00,20.1,14.7,29.97,SE,135,5.0,8.0,79,0.00,,,0.00,meteohub,2013-11-08 11:00:00,
2013-11-08 05:05:00,19.9,14.5,29.96,SSE,158,8.0,8.0,79,0.00,,,0.00,meteohub,2013-11-08 11:05:00,
2013-11-08 05:10:00,20.5,15.1,29.95,SE,135,8.0,8.0,79,0.00,,,0.00,meteohub,2013-11-08 11:10:00,
2013-11-08 05:15:00,20.7,15.3,29.96,SSE,158,6.0,8.0,79,0.00,,,0.00,meteohub,2013-11-08 11:15:00,
2013-11-08 05:21:00,20.7,15.3,29.94,SE,135,6.0,8.0,79,0.00,,,0.00,meteohub,2013-11-08 11:21:00,
2013-11-08 05:26:00,20.8,15.4,29.94,SE,135,7.0,8.0,79,0.00,,,0.00,meteohub,2013-11-08 11:26:00,
2013-11-08 05:31:00,21.2,15.4,29.94,SE,135,8.0,8.0,78,0.00,,,0.00,meteohub,2013-11-08 11:31:00,
2013-11-08 05:36:00,21.7,16.2,29.93,SE,135,10.0,10.0,79,0.00,,,0.00,meteohub,2013-11-08 11:36:00,
2013-11-08 05:41:00,22.5,16.9,29.93,SSE,158,9.0,10.0,79,0.00,,,0.00,meteohub,2013-11-08 11:41:00,
2013-11-08 05:46:00,23.0,17.2,29.92,SE,135,10.0,10.0,78,0.00,,,0.00,meteohub,2013-11-08 11:46:00,
2013-11-08 05:51:00,23.5,18.0,29.91,SE,135,11.0,11.0,79,0.00,,,0.00,meteohub,2013-11-08 11:51:00,
2013-11-08 05:56:00,24.1,18.5,29.92,SE,135,11.0,11.0,79,0.00,,,0.00,meteohub,2013-11-08 11:56:00,
2013-11-08 06:01:00,24.3,18.7,29.92,SE,135,9.0,13.0,79,0.00,,,0.00,meteohub,2013-11-08 12:01:00,
2013-11-08 06:06:00,24.3,18.7,29.91,SE,135,12.0,13.0,79,0.00,,,0.00,meteohub,2013-11-08 12:06:00,
2013-11-08 06:11:00,24.4,18.9,29.91,SE,135,12.0,14.0,79,0.00,,,0.00,meteohub,2013-11-08 12:11:00,
2013-11-08 06:16:00,24.4,18.9,29.91,SE,135,12.0,14.0,79,0.00,,,0.00,meteohub,2013-11-08 12:16:00,
2013-11-08 06:21:00,24.6,19.0,29.91,SE,135,11.0,14.0,79,0.00,,,0.00,meteohub,2013-11-08 12:21:00,
2013-11-08 06:27:00,24.6,19.0,29.91,SE,135,11.0,12.0,79,0.00,,,0.00,meteohub,2013-11-08 12:27:00,
2013-11-08 06:32:00,24.6,19.0,29.91,SE,135,12.0,12.0,79,0.00,,,0.00,meteohub,2013-11-08 12:32:00,
2013-11-08 06:37:00,25.0,19.4,29.91,SE,135,11.0,13.0,79,0.00,,,0.00,meteohub,2013-11-08 12:37:00,
2013-11-08 06:42:00,25.3,19.8,29.91,SE,135,11.0,13.0,79,0.00,,,0.00,meteohub,2013-11-08 12:42:00,
2013-11-08 06:47:00,25.5,19.9,29.91,SE,135,11.0,13.0,79,0.00,,,0.00,meteohub,2013-11-08 12:47:00,
2013-11-08 06:52:00,25.9,20.3,29.91,SE,135,14.0,14.0,79,0.00,,,0.00,meteohub,2013-11-08 12:52:00,
2013-11-08 06:57:00,26.1,20.5,29.90,SE,135,15.0,15.0,79,0.00,,,0.00,meteohub,2013-11-08 12:57:00,
2013-11-08 07:02:00,26.6,20.7,29.91,SE,135,16.0,17.0,78,0.00,,,0.00,meteohub,2013-11-08 13:02:00,
2013-11-08 07:07:00,26.8,20.8,29.90,SE,135,15.0,17.0,78,0.00,,,0.00,meteohub,2013-11-08 13:07:00,
2013-11-08 07:12:00,27.1,21.2,29.90,South,180,15.0,17.0,78,0.00,,,0.00,meteohub,2013-11-08 13:12:00,
2013-11-08 07:17:00,27.5,21.6,29.90,SE,135,17.0,17.0,78,0.00,,,0.00,meteohub,2013-11-08 13:17:00,
2013-11-08 07:22:00,27.9,21.9,29.90,SE,135,15.0,17.0,78,0.00,,,0.00,meteohub,2013-11-08 13:22:00,
2013-11-08 07:27:00,28.0,22.1,29.89,SE,135,16.0,17.0,78,0.00,,,0.00,meteohub,2013-11-08 13:27:00,
2013-11-08 07:33:00,28.4,23.5,29.90,SE,135,15.0,17.0,82,0.00,,,0.00,meteohub,2013-11-08 13:33:00,
2013-11-08 07:38:00,28.8,23.9,29.89,SE,135,17.0,17.0,82,0.00,,,0.00,meteohub,2013-11-08 13:38:00,
2013-11-08 07:43:00,29.1,24.3,29.89,SE,135,20.0,20.0,82,0.00,,,0.00,meteohub,2013-11-08 13:43:00,
2013-11-08 07:48:00,29.5,24.6,29.88,SE,135,16.0,20.0,82,0.00,,,0.00,meteohub,2013-11-08 13:48:00,
2013-11-08 07:53:00,29.7,24.6,29.87,SE,135,19.0,20.0,81,0.00,,,0.00,meteohub,2013-11-08 13:53:00,
2013-11-08 07:58:00,30.0,25.0,29.87,SE,135,21.0,21.0,81,0.00,,,0.00,meteohub,2013-11-08 13:58:00,
2013-11-08 08:03:00,30.4,24.6,29.86,SE,135,21.0,23.0,79,0.00,,,0.00,meteohub,2013-11-08 14:03:00,
2013-11-08 08:08:00,30.7,24.4,29.85,SE,135,27.0,27.0,77,0.00,,,0.00,meteohub,2013-11-08 14:08:00,
2013-11-08 08:13:00,30.9,24.3,29.86,SE,135,21.0,27.0,76,0.00,,,0.00,meteohub,2013-11-08 14:13:00,
2013-11-08 08:18:00,30.7,23.7,29.85,SE,135,21.0,27.0,75,0.00,,,0.00,meteohub,2013-11-08 14:18:00,
2013-11-08 08:23:00,30.9,23.9,29.85,SE,135,20.0,27.0,75,0.00,,,0.00,meteohub,2013-11-08 14:23:00,
2013-11-08 08:28:00,31.1,23.7,29.84,SE,135,18.0,23.0,74,0.00,,,0.00,meteohub,2013-11-08 14:28:00,
2013-11-08 08:33:00,31.3,23.9,29.84,SE,135,21.0,23.0,74,0.00,,,0.00,meteohub,2013-11-08 14:33:00,
2013-11-08 08:39:00,31.5,24.1,29.84,SE,135,25.0,25.0,74,0.00,,,0.00,meteohub,2013-11-08 14:39:00,
2013-11-08 08:44:00,31.6,24.3,29.83,SE,135,23.0,25.0,74,0.00,,,0.00,meteohub,2013-11-08 14:44:00,
2013-11-08 08:49:00,31.8,24.4,29.83,SSE,158,21.0,25.0,74,0.00,,,0.00,meteohub,2013-11-08 14:49:00,
2013-11-08 08:54:00,32.0,24.3,29.81,SE,135,23.0,25.0,73,0.00,,,0.00,meteohub,2013-11-08 14:54:00,
2013-11-08 08:59:00,32.0,24.3,29.81,SE,135,26.0,27.0,73,0.00,,,0.00,meteohub,2013-11-08 14:59:00,
2013-11-08 09:04:00,32.0,24.3,29.82,SE,135,25.0,27.0,73,0.00,,,0.00,meteohub,2013-11-08 15:04:00,
2013-11-08 09:09:00,32.2,24.4,29.81,SE,135,22.0,27.0,73,0.00,,,0.00,meteohub,2013-11-08 15:09:00,
2013-11-08 09:14:00,32.4,24.6,29.80,SE,135,23.0,27.0,73,0.00,,,0.00,meteohub,2013-11-08 15:14:00,
2013-11-08 09:19:00,32.7,25.0,29.80,SE,135,20.0,27.0,73,0.00,,,0.00,meteohub,2013-11-08 15:19:00,
2013-11-08 09:24:00,33.1,25.0,29.80,SE,135,21.0,27.0,72,0.00,,,0.00,meteohub,2013-11-08 15:24:00,
2013-11-08 09:29:00,33.3,25.2,29.79,SE,135,23.0,27.0,72,0.00,,,0.00,meteohub,2013-11-08 15:29:00,
2013-11-08 09:34:00,33.4,25.3,29.79,SE,135,23.0,27.0,72,0.00,,,0.00,meteohub,2013-11-08 15:34:00,
2013-11-08 09:40:00,33.8,25.3,29.78,SE,135,24.0,27.0,71,0.00,,,0.00,meteohub,2013-11-08 15:40:00,
2013-11-08 09:45:00,34.2,25.7,29.77,SE,135,25.0,26.0,71,0.00,,,0.00,meteohub,2013-11-08 15:45:00,
2013-11-08 09:50:00,34.5,25.7,29.77,SE,135,23.0,27.0,70,0.00,,,0.00,meteohub,2013-11-08 15:50:00,
2013-11-08 09:55:00,34.7,25.9,29.77,SE,135,27.0,27.0,70,0.00,,,0.00,meteohub,2013-11-08 15:55:00,
2013-11-08 10:00:00,34.7,25.5,29.77,SE,135,26.0,28.0,69,0.00,,,0.00,meteohub,2013-11-08 16:00:00,
2013-11-08 10:05:00,34.9,25.7,29.77,SE,135,24.0,28.0,69,0.00,,,0.00,meteohub,2013-11-08 16:05:00,
2013-11-08 10:10:00,35.1,25.9,29.77,South,180,27.0,28.0,69,0.00,,,0.00,meteohub,2013-11-08 16:10:00,
2013-11-08 10:15:00,35.2,26.1,29.77,SE,135,22.0,27.0,69,0.00,,,0.00,meteohub,2013-11-08 16:15:00,
2013-11-08 10:20:00,35.2,26.1,29.76,SE,135,27.0,30.0,69,0.00,,,0.00,meteohub,2013-11-08 16:20:00,
2013-11-08 10:25:00,35.2,26.1,29.75,SE,135,27.0,30.0,69,0.00,,,0.00,meteohub,2013-11-08 16:25:00,
2013-11-08 10:31:00,35.2,26.1,29.75,SE,135,28.0,30.0,69,0.00,,,0.00,meteohub,2013-11-08 16:31:00,
2013-11-08 10:36:00,35.2,26.1,29.75,SE,135,28.0,29.0,69,0.00,,,0.00,meteohub,2013-11-08 16:36:00,
2013-11-08 10:41:00,35.4,26.2,29.73,SE,135,28.0,30.0,69,0.00,,,0.00,meteohub,2013-11-08 16:41:00,
2013-11-08 10:46:00,35.4,26.2,29.73,SE,135,27.0,30.0,69,0.00,,,0.00,meteohub,2013-11-08 16:46:00,
2013-11-08 10:51:00,35.4,26.2,29.73,SE,135,29.0,31.0,69,0.00,,,0.00,meteohub,2013-11-08 16:51:00,
2013-11-08 10:56:00,35.2,26.1,29.72,SE,135,27.0,31.0,69,0.00,,,0.00,meteohub,2013-11-08 16:56:00,
2013-11-08 11:01:00,35.1,25.9,29.71,SE,135,30.0,33.0,69,0.00,,,0.00,meteohub,2013-11-08 17:01:00,
2013-11-08 11:06:00,35.1,26.2,29.70,SE,135,29.0,33.0,70,0.00,,,0.00,meteohub,2013-11-08 17:06:00,
2013-11-08 11:11:00,35.1,26.2,29.70,SE,135,26.0,31.0,70,0.00,,,0.00,meteohub,2013-11-08 17:11:00,
2013-11-08 11:16:00,34.9,26.1,29.69,SE,135,29.0,31.0,70,0.00,,,0.00,meteohub,2013-11-08 17:16:00,
2013-11-08 11:21:00,35.1,26.2,29.69,SE,135,24.0,31.0,70,0.00,,,0.00,meteohub,2013-11-08 17:21:00,
2013-11-08 11:27:00,35.1,26.2,29.69,SE,135,30.0,34.0,70,0.00,,,0.00,meteohub,2013-11-08 17:27:00,
2013-11-08 11:32:00,35.1,26.2,29.68,SE,135,27.0,34.0,70,0.00,,,0.00,meteohub,2013-11-08 17:32:00,
2013-11-08 11:37:00,35.1,26.2,29.67,SE,135,29.0,34.0,70,0.00,,,0.00,meteohub,2013-11-08 17:37:00,
2013-11-08 11:42:00,35.1,26.6,29.68,SE,135,30.0,34.0,71,0.00,,,0.00,meteohub,2013-11-08 17:42:00,
2013-11-08 11:47:00,35.2,26.8,29.66,SE,135,30.0,34.0,71,0.00,,,0.00,meteohub,2013-11-08 17:47:00,
2013-11-08 11:52:00,35.2,26.4,29.66,SE,135,33.0,33.0,70,0.00,,,0.00,meteohub,2013-11-08 17:52:00,
2013-11-08 11:57:00,35.2,26.4,29.65,SE,135,32.0,35.0,70,0.00,,,0.00,meteohub,2013-11-08 17:57:00,
2013-11-08 12:02:00,35.2,26.8,29.65,SE,135,29.0,35.0,71,0.00,,,0.00,meteohub,2013-11-08 18:02:00,
2013-11-08 12:07:00,35.2,26.4,29.64,SE,135,31.0,34.0,70,0.00,,,0.00,meteohub,2013-11-08 18:07:00,
2013-11-08 12:12:00,35.2,26.4,29.65,SE,135,28.0,32.0,70,0.00,,,0.00,meteohub,2013-11-08 18:12:00,
2013-11-08 12:17:00,35.4,27.0,29.64,SE,135,30.0,31.0,71,0.00,,,0.00,meteohub,2013-11-08 18:17:00,
2013-11-08 12:22:00,35.8,26.6,29.64,SE,135,26.0,31.0,69,0.00,,,0.00,meteohub,2013-11-08 18:22:00,
2013-11-08 12:27:00,36.0,26.8,29.63,SE,135,24.0,31.0,69,0.00,,,0.00,meteohub,2013-11-08 18:27:00,
2013-11-08 12:33:00,36.0,26.8,29.62,SE,135,28.0,31.0,69,0.00,,,0.00,meteohub,2013-11-08 18:33:00,
2013-11-08 12:38:00,36.0,26.8,29.61,SE,135,27.0,31.0,69,0.00,,,0.00,meteohub,2013-11-08 18:38:00,
2013-11-08 12:43:00,36.0,26.8,29.60,SE,135,30.0,30.0,69,0.00,,,0.00,meteohub,2013-11-08 18:43:00,
2013-11-08 12:48:00,36.0,26.8,29.60,SE,135,30.0,33.0,69,0.00,,,0.00,meteohub,2013-11-08 18:48:00,
2013-11-08 12:53:00,36.0,26.8,29.60,SSW,203,35.0,35.0,69,0.00,,,0.00,meteohub,2013-11-08 18:53:00,
2013-11-08 12:58:00,36.0,26.8,29.58,SSE,158,30.0,33.0,69,0.00,,,0.00,meteohub,2013-11-08 18:58:00,
2013-11-08 13:03:00,36.0,26.8,29.59,SE,135,29.0,35.0,69,0.00,,,0.00,meteohub,2013-11-08 19:03:00,
2013-11-08 13:08:00,36.1,27.0,29.58,SE,135,28.0,35.0,69,0.00,,,0.00,meteohub,2013-11-08 19:08:00,
2013-11-08 13:13:00,36.3,27.1,29.58,SE,135,25.0,34.0,69,0.00,,,0.00,meteohub,2013-11-08 19:13:00,
2013-11-08 13:19:00,36.3,27.1,29.57,SE,135,27.0,34.0,69,0.00,,,0.00,meteohub,2013-11-08 19:19:00,
2013-11-08 13:24:00,36.3,27.1,29.58,SE,135,23.0,34.0,69,0.00,,,0.00,meteohub,2013-11-08 19:24:00,
2013-11-08 13:29:00,36.3,27.1,29.57,SE,135,27.0,31.0,69,0.00,,,0.00,meteohub,2013-11-08 19:29:00,
2013-11-08 13:34:00,36.3,27.1,29.57,SE,135,29.0,29.0,69,0.00,,,0.00,meteohub,2013-11-08 19:34:00,
2013-11-08 13:39:00,36.5,27.3,29.56,SE,135,26.0,32.0,69,0.00,,,0.00,meteohub,2013-11-08 19:39:00,
2013-11-08 13:44:00,36.5,27.3,29.56,SE,135,25.0,32.0,69,0.00,,,0.00,meteohub,2013-11-08 19:44:00,
2013-11-08 13:49:00,36.7,27.5,29.55,SE,135,26.0,32.0,69,0.00,,,0.00,meteohub,2013-11-08 19:49:00,
2013-11-08 13:54:00,36.9,27.7,29.54,SE,135,23.0,30.0,69,0.00,,,0.00,meteohub,2013-11-08 19:54:00,
2013-11-08 14:00:00,36.9,27.7,29.54,SE,135,26.0,28.0,69,0.00,,,0.00,meteohub,2013-11-08 20:00:00,
2013-11-08 14:05:00,37.0,27.9,29.55,SSE,158,23.0,29.0,69,0.00,,,0.00,meteohub,2013-11-08 20:05:00,
2013-11-08 14:10:00,37.2,28.0,29.55,South,180,21.0,27.0,69,0.00,,,0.00,meteohub,2013-11-08 20:10:00,
2013-11-08 14:15:00,37.4,29.5,29.55,SE,135,23.0,27.0,73,0.00,,,0.00,meteohub,2013-11-08 20:15:00,
2013-11-08 14:20:00,37.6,30.0,29.54,South,180,23.0,23.0,74,0.00,,,0.00,meteohub,2013-11-08 20:20:00,
2013-11-08 14:25:00,37.8,30.2,29.53,SE,135,24.0,24.0,74,0.00,,,0.00,meteohub,2013-11-08 20:25:00,
2013-11-08 14:30:00,37.8,30.2,29.53,SE,135,19.0,24.0,74,0.00,,,0.00,meteohub,2013-11-08 20:30:00,
2013-11-08 14:35:00,37.8,30.2,29.53,SE,135,21.0,24.0,74,0.00,,,0.00,meteohub,2013-11-08 20:35:00,
2013-11-08 14:40:00,37.8,30.2,29.54,SE,135,17.0,24.0,74,0.00,,,0.00,meteohub,2013-11-08 20:40:00,
2013-11-08 14:45:00,37.8,30.2,29.53,SE,135,21.0,24.0,74,0.00,,,0.00,meteohub,2013-11-08 20:45:00,
2013-11-08 14:51:00,37.8,30.2,29.53,SE,135,20.0,21.0,74,0.00,,,0.00,meteohub,2013-11-08 20:51:00,
2013-11-08 14:56:00,37.8,30.2,29.53,SE,135,17.0,22.0,74,0.00,,,0.00,meteohub,2013-11-08 20:56:00,
2013-11-08 15:01:00,37.9,30.4,29.53,SE,135,19.0,22.0,74,0.00,,,0.00,meteohub,2013-11-08 21:01:00,
2013-11-08 15:06:00,37.9,30.7,29.53,SE,135,16.0,21.0,75,0.00,,,0.00,meteohub,2013-11-08 21:06:00,
2013-11-08 15:11:00,37.9,30.7,29.53,SE,135,15.0,20.0,75,0.00,,,0.00,meteohub,2013-11-08 21:11:00,
2013-11-08 15:16:00,38.1,30.9,29.52,SE,135,17.0,19.0,75,0.00,,,0.00,meteohub,2013-11-08 21:16:00,
2013-11-08 15:21:00,38.3,31.1,29.52,SE,135,16.0,19.0,75,0.00,,,0.00,meteohub,2013-11-08 21:21:00,
2013-11-08 15:26:00,38.7,31.5,29.52,SE,135,19.0,19.0,75,0.00,,,0.00,meteohub,2013-11-08 21:26:00,
2013-11-08 15:31:00,39.0,31.5,29.52,SE,135,15.0,19.0,74,0.00,,,0.00,meteohub,2013-11-08 21:31:00,
2013-11-08 15:36:00,39.0,31.5,29.52,SE,135,17.0,19.0,74,0.00,,,0.00,meteohub,2013-11-08 21:36:00,
2013-11-08 15:41:00,39.0,31.5,29.52,SE,135,15.0,19.0,74,0.00,,,0.00,meteohub,2013-11-08 21:41:00,
2013-11-08 15:47:00,39.0,31.5,29.52,SE,135,17.0,17.0,74,0.00,,,0.00,meteohub,2013-11-08 21:47:00,
2013-11-08 15:52:00,39.2,31.3,29.50,SE,135,18.0,18.0,73,0.00,,,0.00,meteohub,2013-11-08 21:52:00,
2013-11-08 15:57:00,39.2,31.3,29.51,SE,135,17.0,18.0,73,0.00,,,0.00,meteohub,2013-11-08 21:57:00,
2013-11-08 16:02:00,39.0,31.5,29.51,SE,135,15.0,19.0,74,0.00,,,0.00,meteohub,2013-11-08 22:02:00,
2013-11-08 16:07:00,39.2,31.3,29.51,SE,135,14.0,19.0,73,0.00,,,0.00,meteohub,2013-11-08 22:07:00,
2013-11-08 16:12:00,40.1,32.5,29.50,South,180,15.0,19.0,74,0.00,,,0.00,meteohub,2013-11-08 22:12:00,
2013-11-08 16:17:00,40.6,32.7,29.50,SE,135,17.0,17.0,73,0.00,,,0.00,meteohub,2013-11-08 22:17:00,
2013-11-08 16:22:00,40.5,32.2,29.50,SE,135,15.0,17.0,72,0.00,,,0.00,meteohub,2013-11-08 22:22:00,
2013-11-08 16:27:00,39.7,31.5,29.50,SE,135,14.0,17.0,72,0.00,,,0.00,meteohub,2013-11-08 22:27:00,
2013-11-08 16:32:00,39.7,31.8,29.50,SE,135,20.0,20.0,73,0.00,,,0.00,meteohub,2013-11-08 22:32:00,
2013-11-08 16:37:00,39.9,32.0,29.49,SE,135,18.0,21.0,73,0.00,,,0.00,meteohub,2013-11-08 22:37:00,
2013-11-08 16:42:00,39.2,31.3,29.48,SE,135,22.0,22.0,73,0.00,,,0.00,meteohub,2013-11-08 22:42:00,
2013-11-08 16:47:00,38.5,30.9,29.49,SE,135,17.0,22.0,74,0.00,,,0.00,meteohub,2013-11-08 22:47:00,
2013-11-08 16:52:00,38.1,30.9,29.48,SE,135,16.0,22.0,75,0.00,,,0.00,meteohub,2013-11-08 22:52:00,
2013-11-08 16:57:00,37.8,30.9,29.49,South,180,14.0,22.0,76,0.00,,,0.00,meteohub,2013-11-08 22:57:00,
2013-11-08 17:02:00,37.4,30.6,29.49,SE,135,13.0,21.0,76,0.00,,,0.00,meteohub,2013-11-08 23:02:00,
2013-11-08 17:08:00,37.2,29.1,29.49,SE,135,14.0,18.0,72,0.00,,,0.00,meteohub,2013-11-08 23:08:00,
2013-11-08 17:13:00,37.0,29.1,29.49,SW,225,5.0,15.0,73,0.00,,,0.00,meteohub,2013-11-08 23:13:00,
2013-11-08 17:18:00,36.9,28.9,29.49,SE,135,10.0,15.0,73,0.00,,,0.00,meteohub,2013-11-08 23:18:00,
2013-11-08 17:23:00,37.0,29.1,29.48,SE,135,12.0,15.0,73,0.00,,,0.00,meteohub,2013-11-08 23:23:00,
2013-11-08 17:28:00,36.9,29.3,29.49,SSE,158,15.0,15.0,74,0.00,,,0.00,meteohub,2013-11-08 23:28:00,
2013-11-08 17:33:00,37.0,29.5,29.48,South,180,16.0,16.0,74,0.00,,,0.00,meteohub,2013-11-08 23:33:00,
2013-11-08 17:38:00,37.0,29.8,29.48,SSE,158,15.0,16.0,75,0.00,,,0.00,meteohub,2013-11-08 23:38:00,
2013-11-08 17:43:00,36.9,29.7,29.48,South,180,11.0,17.0,75,0.00,,,0.00,meteohub,2013-11-08 23:43:00,
2013-11-08 17:48:00,36.9,29.7,29.49,SE,135,13.0,17.0,75,0.00,,,0.00,meteohub,2013-11-08 23:48:00,
2013-11-08 17:53:00,36.9,30.0,29.48,South,180,11.0,17.0,76,0.00,,,0.00,meteohub,2013-11-08 23:53:00,
2013-11-08 17:58:00,37.2,30.4,29.48,SE,135,12.0,14.0,76,0.00,,,0.00,meteohub,2013-11-08 23:58:00,
2013-11-08 18:03:00,37.0,30.2,29.47,South,180,8.0,23.0,76,0.00,,,0.00,meteohub,2013-11-09 00:03:00,
2013-11-08 18:08:00,36.9,30.0,29.47,South,180,8.0,23.0,76,0.00,,,0.00,meteohub,2013-11-09 00:08:00,
2013-11-08 18:13:00,36.9,30.0,29.48,SE,135,8.0,23.0,76,0.00,,,0.00,meteohub,2013-11-09 00:13:00,
2013-11-08 18:18:00,36.7,29.8,29.48,SE,135,13.0,13.0,76,0.00,,,0.00,meteohub,2013-11-09 00:18:00,
2013-11-08 18:23:00,36.7,29.8,29.48,SE,135,8.0,13.0,76,0.00,,,0.00,meteohub,2013-11-09 00:23:00,
2013-11-08 18:29:00,36.5,29.7,29.47,South,180,9.0,13.0,76,0.00,,,0.00,meteohub,2013-11-09 00:29:00,
2013-11-08 18:34:00,36.3,29.8,29.48,South,180,8.0,13.0,77,0.00,,,0.00,meteohub,2013-11-09 00:34:00,
2013-11-08 18:39:00,36.5,30.0,29.48,South,180,7.0,13.0,77,0.00,,,0.00,meteohub,2013-11-09 00:39:00,
2013-11-08 18:44:00,36.3,29.8,29.48,South,180,8.0,11.0,77,0.00,,,0.00,meteohub,2013-11-09 00:44:00,
2013-11-08 18:49:00,36.3,29.8,29.48,South,180,8.0,11.0,77,0.00,,,0.00,meteohub,2013-11-09 00:49:00,
2013-11-08 18:54:00,36.3,29.8,29.48,South,180,10.0,10.0,77,0.00,,,0.00,meteohub,2013-11-09 00:54:00,
2013-11-08 18:59:00,36.3,29.8,29.48,South,180,9.0,11.0,77,0.00,,,0.00,meteohub,2013-11-09 00:59:00,
2013-11-08 19:04:00,36.3,29.8,29.48,South,180,6.0,11.0,77,0.00,,,0.00,meteohub,2013-11-09 01:04:00,
2013-11-08 19:09:00,36.1,29.7,29.48,South,180,6.0,11.0,77,0.00,,,0.00,meteohub,2013-11-09 01:09:00,
2013-11-08 19:14:00,36.3,29.8,29.48,South,180,7.0,11.0,77,0.00,,,0.00,meteohub,2013-11-09 01:14:00,
2013-11-08 19:19:00,36.5,30.4,29.48,South,180,6.0,8.0,78,0.00,,,0.00,meteohub,2013-11-09 01:19:00,
2013-11-08 19:24:00,36.7,30.6,29.48,WSW,248,6.0,7.0,78,0.00,,,0.00,meteohub,2013-11-09 01:24:00,
2013-11-08 19:29:00,36.9,30.6,29.49,SW,225,8.0,8.0,78,0.00,,,0.00,meteohub,2013-11-09 01:29:00,
2013-11-08 19:35:00,36.9,30.6,29.48,West,270,8.0,8.0,78,0.00,,,0.00,meteohub,2013-11-09 01:35:00,
2013-11-08 19:40:00,37.6,32.5,29.48,WSW,248,9.0,9.0,82,0.00,,,0.00,meteohub,2013-11-09 01:40:00,
2013-11-08 19:45:00,37.8,33.1,29.49,WSW,248,14.0,14.0,83,0.00,,,0.00,meteohub,2013-11-09 01:45:00,
2013-11-08 19:50:00,38.1,33.4,29.48,West,270,14.0,15.0,83,0.00,,,0.00,meteohub,2013-11-09 01:50:00,
2013-11-08 19:55:00,38.8,34.2,29.48,West,270,17.0,18.0,83,0.00,,,0.00,meteohub,2013-11-09 01:55:00,
2013-11-08 20:00:00,39.0,34.3,29.48,West,270,15.0,18.0,83,0.00,,,0.00,meteohub,2013-11-09 02:00:00,
2013-11-08 20:05:00,39.9,35.2,29.48,West,270,16.0,18.0,83,0.00,,,0.00,meteohub,2013-11-09 02:05:00,
2013-11-08 20:10:00,41.4,36.3,29.48,West,270,15.0,20.0,82,0.00,,,0.00,meteohub,2013-11-09 02:10:00,
2013-11-08 20:15:00,41.7,36.7,29.47,West,270,18.0,20.0,82,0.00,,,0.00,meteohub,2013-11-09 02:15:00,
2013-11-08 20:20:00,41.7,36.7,29.48,West,270,13.0,20.0,82,0.00,,,0.00,meteohub,2013-11-09 02:20:00,
2013-11-08 20:25:00,41.9,36.5,29.48,West,270,12.0,18.0,81,0.00,,,0.00,meteohub,2013-11-09 02:25:00,
2013-11-08 20:30:00,42.1,36.7,29.49,West,270,10.0,18.0,81,0.00,,,0.00,meteohub,2013-11-09 02:30:00,
2013-11-08 20:35:00,42.1,36.7,29.48,West,270,12.0,15.0,81,0.00,,,0.00,meteohub,2013-11-09 02:35:00,
2013-11-08 20:40:00,42.1,36.7,29.49,West,270,9.0,15.0,81,0.00,,,0.00,meteohub,2013-11-09 02:40:00,
2013-11-08 20:46:00,41.7,36.3,29.49,West,270,9.0,12.0,81,0.00,,,0.00,meteohub,2013-11-09 02:46:00,
2013-11-08 20:51:00,41.0,35.6,29.49,West,270,7.0,12.0,81,0.00,,,0.00,meteohub,2013-11-09 02:51:00,
2013-11-08 20:56:00,40.8,35.8,29.49,West,270,7.0,10.0,82,0.00,,,0.00,meteohub,2013-11-09 02:56:00,
2013-11-08 21:01:00,40.5,35.4,29.49,West,270,7.0,10.0,82,0.00,,,0.00,meteohub,2013-11-09 03:01:00,
2013-11-08 21:06:00,39.9,34.9,29.49,WSW,248,7.0,8.0,82,0.00,,,0.00,meteohub,2013-11-09 03:06:00,
2013-11-08 21:11:00,39.6,34.5,29.49,SW,225,8.0,8.0,82,0.00,,,0.00,meteohub,2013-11-09 03:11:00,
2013-11-08 21:16:00,39.4,34.3,29.50,WSW,248,8.0,9.0,82,0.00,,,0.00,meteohub,2013-11-09 03:16:00,
2013-11-08 21:21:00,39.4,34.3,29.50,NW,315,10.0,10.0,82,0.00,,,0.00,meteohub,2013-11-09 03:21:00,
2013-11-08 21:27:00,39.4,34.3,29.49,North,0,10.0,11.0,82,0.00,,,0.00,meteohub,2013-11-09 03:27:00,
2013-11-08 21:32:00,39.6,34.9,29.50,SW,225,12.0,12.0,83,0.00,,,0.00,meteohub,2013-11-09 03:32:00,
2013-11-08 21:37:00,39.7,35.1,29.50,West,270,11.0,13.0,83,0.00,,,0.00,meteohub,2013-11-09 03:37:00,
2013-11-08 21:42:00,39.9,35.2,29.50,West,270,15.0,15.0,83,0.00,,,0.00,meteohub,2013-11-09 03:42:00,
2013-11-08 21:47:00,40.5,36.0,29.50,West,270,12.0,16.0,84,0.00,,,0.00,meteohub,2013-11-09 03:47:00,
2013-11-08 21:52:00,40.5,36.0,29.50,NW,315,12.0,16.0,84,0.00,,,0.00,meteohub,2013-11-09 03:52:00,
2013-11-08 21:57:00,40.6,36.1,29.51,West,270,13.0,16.0,84,0.00,,,0.00,meteohub,2013-11-09 03:57:00,
2013-11-08 22:02:00,41.2,36.7,29.50,West,270,12.0,13.0,84,0.00,,,0.00,meteohub,2013-11-09 04:02:00,
2013-11-08 22:07:00,41.4,36.9,29.51,West,270,11.0,15.0,84,0.00,,,0.00,meteohub,2013-11-09 04:07:00,
2013-11-08 22:12:00,41.2,36.7,29.51,West,270,15.0,15.0,84,0.00,,,0.00,meteohub,2013-11-09 04:12:00,
2013-11-08 22:17:00,41.4,36.9,29.51,West,270,13.0,15.0,84,0.00,,,0.00,meteohub,2013-11-09 04:17:00,
2013-11-08 22:22:00,41.9,37.8,29.51,West,270,11.0,15.0,85,0.00,,,0.00,meteohub,2013-11-09 04:22:00,
2013-11-08 22:28:00,42.3,38.1,29.51,West,270,14.0,15.0,85,0.00,,,0.00,meteohub,2013-11-09 04:28:00,
2013-11-08 22:33:00,42.6,38.7,29.51,West,270,17.0,17.0,86,0.00,,,0.00,meteohub,2013-11-09 04:33:00,
2013-11-08 22:38:00,42.8,38.7,29.51,West,270,13.0,17.0,85,0.00,,,0.00,meteohub,2013-11-09 04:38:00,
2013-11-08 22:43:00,42.6,38.5,29.51,West,270,11.0,17.0,85,0.00,,,0.00,meteohub,2013-11-09 04:43:00,
2013-11-08 22:48:00,42.3,38.1,29.52,West,270,11.0,17.0,85,0.00,,,0.00,meteohub,2013-11-09 04:48:00,
2013-11-08 22:53:00,41.7,37.6,29.51,West,270,11.0,15.0,85,0.00,,,0.00,meteohub,2013-11-09 04:53:00,
2013-11-08 22:58:00,41.7,37.6,29.52,NW,315,15.0,15.0,85,0.00,,,0.00,meteohub,2013-11-09 04:58:00,
2013-11-08 23:01:00,41.9,37.8,29.52,West,270,15.0,15.0,85,0.00,,,0.00,meteohub,2013-11-09 05:01:00,
2013-11-08 23:02:00,41.9,37.9,29.52,West,270,12.0,15.0,86,0.00,,,0.00,meteohub,2013-11-09 05:02:00,
2013-11-08 23:03:00,42.1,38.1,29.52,NW,315,13.0,15.0,86,0.00,,,0.00,meteohub,2013-11-09 05:03:00,
2013-11-08 23:05:00,42.1,38.1,29.53,West,270,19.0,19.0,86,0.00,,,0.00,meteohub,2013-11-09 05:05:00,
2013-11-08 23:10:00,42.3,38.3,29.53,West,270,13.0,21.0,86,0.00,,,0.00,meteohub,2013-11-09 05:10:00,
2013-11-08 23:15:00,42.1,38.1,29.53,West,270,15.0,21.0,86,0.00,,,0.00,meteohub,2013-11-09 05:15:00,
2013-11-08 23:21:00,42.3,38.3,29.53,West,270,23.0,23.0,86,0.00,,,0.00,meteohub,2013-11-09 05:21:00,
2013-11-08 23:26:00,42.3,38.1,29.53,WNW,293,23.0,26.0,85,0.00,,,0.00,meteohub,2013-11-09 05:26:00,
2013-11-08 23:31:00,42.4,37.9,29.53,West,270,24.0,27.0,84,0.00,,,0.00,meteohub,2013-11-09 05:31:00,
2013-11-08 23:36:00,42.3,37.4,29.54,West,270,23.0,27.0,83,0.00,,,0.00,meteohub,2013-11-09 05:36:00,
2013-11-08 23:41:00,41.9,36.9,29.54,West,270,15.0,27.0,82,0.00,,,0.00,meteohub,2013-11-09 05:41:00,
2013-11-08 23:46:00,41.7,36.7,29.54,West,270,19.0,26.0,82,0.00,,,0.00,meteohub,2013-11-09 05:46:00,
2013-11-08 23:51:00,41.4,36.0,29.54,NW,315,23.0,26.0,81,0.00,,,0.00,meteohub,2013-11-09 05:51:00,
2013-11-08 23:56:00,41.4,36.0,29.54,West,270,15.0,24.0,81,0.00,,,0.00,meteohub,2013-11-09 05:56:00,